createdAt,value
2018-04-27T00:01:01.284Z,1014.23
2018-04-27T00:02:01.317Z,1014.31
2018-04-27T00:03:01.492Z,1014.24
2018-04-27T00:04:01.512Z,1014.28
2018-04-27T00:05:01.744Z,1014.25
2018-04-27T00:06:01.745Z,1014.24
2018-04-27T00:07:01.942Z,1014.25
2018-04-27T00:08:02.309Z,1014.21
2018-04-27T00:09:02.475Z,1014.23
2018-04-27T00:10:02.366Z,1014.21
2018-04-27T00:11:02.401Z,1014.24
2018-04-27T00:12:02.438Z,1014.23
2018-04-27T00:13:02.466Z,1014.29
2018-04-27T00:14:02.751Z,1014.32
2018-04-27T00:15:02.516Z,1014.36
2018-04-27T00:16:03.499Z,1014.39
2018-04-27T00:17:03.233Z,1014.45
2018-04-27T00:18:03.269Z,1014.45
2018-04-27T00:19:03.269Z,1014.46
2018-04-27T00:20:03.496Z,1014.42
2018-04-27T00:21:04.451Z,1014.41
2018-04-27T00:22:04.158Z,1014.42
2018-04-27T00:23:04.256Z,1014.4
2018-04-27T00:24:04.202Z,1014.36
2018-04-27T00:25:04.413Z,1014.32
2018-04-27T00:26:04.377Z,1014.3
2018-04-27T00:27:04.434Z,1014.31
2018-04-27T00:28:04.419Z,1014.3
2018-04-27T00:29:04.506Z,1014.3
2018-04-27T00:30:04.516Z,1014.35
2018-04-27T00:31:04.587Z,1014.35
2018-04-27T00:32:04.647Z,1014.37
2018-04-27T00:33:04.633Z,1014.36
2018-04-27T00:34:04.624Z,1014.39
2018-04-27T00:35:04.709Z,1014.43
2018-04-27T00:36:05.088Z,1014.41
2018-04-27T00:37:05.123Z,1014.43
2018-04-27T00:38:05.276Z,1014.4
2018-04-27T00:39:05.565Z,1014.36
2018-04-27T00:40:05.584Z,1014.35
2018-04-27T00:41:05.739Z,1014.35
2018-04-27T00:42:05.708Z,1014.33
2018-04-27T00:43:05.717Z,1014.35
2018-04-27T00:44:06.114Z,1014.29
2018-04-27T00:45:06.155Z,1014.29
2018-04-27T00:46:06.292Z,1014.35
2018-04-27T00:47:06.313Z,1014.36
2018-04-27T00:48:06.346Z,1014.33
2018-04-27T00:49:06.380Z,1014.33
2018-04-27T00:50:06.505Z,1014.3
2018-04-27T00:51:06.530Z,1014.27
2018-04-27T00:52:06.556Z,1014.3
2018-04-27T00:53:06.595Z,1014.29
2018-04-27T00:54:06.607Z,1014.26
2018-04-27T00:55:06.637Z,1014.24
2018-04-27T00:56:06.684Z,1014.25
2018-04-27T00:57:07.095Z,1014.22
2018-04-27T00:58:07.365Z,1014.21
2018-04-27T00:59:07.840Z,1014.16
2018-04-27T01:00:07.879Z,1014.17
2018-04-27T01:01:07.886Z,1014.16
2018-04-27T01:02:08.322Z,1014.21
2018-04-27T01:03:08.462Z,1014.18
2018-04-27T01:04:08.615Z,1014.21
2018-04-27T01:05:08.614Z,1014.2
2018-04-27T01:06:08.791Z,1014.24
2018-04-27T01:07:08.959Z,1014.17
2018-04-27T01:08:09.082Z,1014.2
2018-04-27T01:09:09.114Z,1014.15
2018-04-27T01:10:09.520Z,1014.2
2018-04-27T01:11:09.644Z,1014.25
2018-04-27T01:12:09.693Z,1014.27
2018-04-27T01:13:09.737Z,1014.29
2018-04-27T01:14:09.861Z,1014.28
2018-04-27T01:15:10.010Z,1014.24
2018-04-27T01:16:10.393Z,1014.2
2018-04-27T01:17:10.416Z,1014.21
2018-04-27T01:18:10.850Z,1014.25
2018-04-27T01:19:11.235Z,1014.23
2018-04-27T01:20:11.382Z,1014.23
2018-04-27T01:21:11.387Z,1014.27
2018-04-27T01:22:11.440Z,1014.25
2018-04-27T01:23:11.531Z,1014.25
2018-04-27T01:24:11.538Z,1014.25
2018-04-27T01:25:11.505Z,1014.21
2018-04-27T01:26:11.536Z,1014.23
2018-04-27T01:27:11.549Z,1014.24
2018-04-27T01:28:11.764Z,1014.18
2018-04-27T01:29:11.802Z,1014.2
2018-04-27T01:30:12.229Z,1014.23
2018-04-27T01:31:11.889Z,1014.3
2018-04-27T01:32:12.062Z,1014.27
2018-04-27T01:33:12.050Z,1014.29
2018-04-27T01:34:11.915Z,1014.28
2018-04-27T01:35:12.207Z,1014.28
2018-04-27T01:36:11.958Z,1014.31
2018-04-27T01:37:11.996Z,1014.31
2018-04-27T01:38:12.010Z,1014.27
2018-04-27T01:39:12.075Z,1014.26
2018-04-27T01:40:12.093Z,1014.29
2018-04-27T01:41:12.507Z,1014.28
2018-04-27T01:42:13.039Z,1014.3
2018-04-27T01:43:13.278Z,1014.22
2018-04-27T01:44:13.586Z,1014.26
2018-04-27T01:45:13.582Z,1014.23
2018-04-27T01:46:14.033Z,1014.26
2018-04-27T01:47:14.071Z,1014.23
2018-04-27T01:48:14.147Z,1014.26
2018-04-27T01:49:14.673Z,1014.29
2018-04-27T01:50:15.103Z,1014.3
2018-04-27T01:51:15.167Z,1014.33
2018-04-27T01:52:16.005Z,1014.32
2018-04-27T01:53:15.716Z,1014.34
2018-04-27T01:54:15.722Z,1014.28
2018-04-27T01:55:16.211Z,1014.33
2018-04-27T01:56:16.187Z,1014.29
2018-04-27T01:57:16.219Z,1014.29
2018-04-27T01:58:16.232Z,1014.28
2018-04-27T01:59:16.632Z,1014.31
2018-04-27T02:00:16.675Z,1014.34
2018-04-27T02:01:16.687Z,1014.32
2018-04-27T02:02:16.712Z,1014.33
2018-04-27T02:03:16.816Z,1014.31
2018-04-27T02:04:16.805Z,1014.27
2018-04-27T02:05:16.824Z,1014.28
2018-04-27T02:06:17.263Z,1014.22
2018-04-27T02:07:17.473Z,1014.25
2018-04-27T02:08:17.473Z,1014.25
2018-04-27T02:09:17.531Z,1014.24
2018-04-27T02:10:17.563Z,1014.21
2018-04-27T02:11:17.552Z,1014.2
2018-04-27T02:12:18.080Z,1014.23
2018-04-27T02:13:17.629Z,1014.21
2018-04-27T02:14:17.651Z,1014.25
2018-04-27T02:15:17.695Z,1014.2
2018-04-27T02:16:17.704Z,1014.22
2018-04-27T02:17:18.160Z,1014.18
2018-04-27T02:18:18.185Z,1014.19
2018-04-27T02:19:18.295Z,1014.24
2018-04-27T02:20:18.244Z,1014.26
2018-04-27T02:21:18.263Z,1014.23
2018-04-27T02:22:18.464Z,1014.23
2018-04-27T02:23:18.500Z,1014.28
2018-04-27T02:24:18.771Z,1014.18
2018-04-27T02:25:18.885Z,1014.19
2018-04-27T02:26:18.908Z,1014.18
2018-04-27T02:27:18.895Z,1014.19
2018-04-27T02:28:18.940Z,1014.27
2018-04-27T02:29:19.389Z,1014.19
2018-04-27T02:30:19.566Z,1014.22
2018-04-27T02:31:19.502Z,1014.26
2018-04-27T02:32:19.689Z,1014.26
2018-04-27T02:33:19.928Z,1014.21
2018-04-27T02:34:19.963Z,1014.23
2018-04-27T02:35:20.187Z,1014.26
2018-04-27T02:36:20.397Z,1014.23
2018-04-27T02:37:20.427Z,1014.23
2018-04-27T02:38:20.451Z,1014.24
2018-04-27T02:39:20.475Z,1014.16
2018-04-27T02:40:20.499Z,1014.23
2018-04-27T02:41:20.523Z,1014.21
2018-04-27T02:42:20.552Z,1014.17
2018-04-27T02:43:20.579Z,1014.16
2018-04-27T02:44:20.616Z,1014.2
2018-04-27T02:45:20.630Z,1014.17
2018-04-27T02:46:20.962Z,1014.14
2018-04-27T02:47:20.981Z,1014.15
2018-04-27T02:48:21.634Z,1014.09
2018-04-27T02:49:21.661Z,1014.15
2018-04-27T02:50:21.685Z,1014.16
2018-04-27T02:51:21.723Z,1014.22
2018-04-27T02:52:21.737Z,1014.16
2018-04-27T02:53:21.774Z,1014.21
2018-04-27T02:54:21.826Z,1014.22
2018-04-27T02:55:21.818Z,1014.16
2018-04-27T02:56:21.845Z,1014.22
2018-04-27T02:57:22.079Z,1014.22
2018-04-27T02:58:21.903Z,1014.22
2018-04-27T02:59:21.930Z,1014.22
2018-04-27T03:00:22.016Z,1014.2
2018-04-27T03:01:21.982Z,1014.13
2018-04-27T03:02:22.143Z,1014.16
2018-04-27T03:03:22.024Z,1014.18
2018-04-27T03:04:22.077Z,1014.15
2018-04-27T03:05:22.081Z,1014.15
2018-04-27T03:06:22.107Z,1014.14
2018-04-27T03:07:22.132Z,1014.16
2018-04-27T03:08:22.157Z,1014.14
2018-04-27T03:09:22.190Z,1014.13
2018-04-27T03:10:22.217Z,1014.09
2018-04-27T03:11:22.448Z,1014.11
2018-04-27T03:12:22.483Z,1014.15
2018-04-27T03:13:22.509Z,1014.16
2018-04-27T03:14:22.739Z,1014.19
2018-04-27T03:15:22.766Z,1014.16
2018-04-27T03:16:23.227Z,1014.19
2018-04-27T03:17:23.280Z,1014.16
2018-04-27T03:18:23.290Z,1014.23
2018-04-27T03:19:23.304Z,1014.19
2018-04-27T03:20:23.579Z,1014.2
2018-04-27T03:21:24.053Z,1014.2
2018-04-27T03:22:24.082Z,1014.2
2018-04-27T03:23:24.103Z,1014.16
2018-04-27T03:24:24.135Z,1014.11
2018-04-27T03:25:24.364Z,1014.14
2018-04-27T03:26:24.380Z,1014.13
2018-04-27T03:27:24.401Z,1014.15
2018-04-27T03:28:24.430Z,1014.15
2018-04-27T03:29:24.902Z,1014.11
2018-04-27T03:30:24.931Z,1014.1
2018-04-27T03:31:24.952Z,1014.13
2018-04-27T03:32:24.974Z,1014.11
2018-04-27T03:33:25.194Z,1014.08
2018-04-27T03:34:25.241Z,1014.12
2018-04-27T03:35:25.247Z,1014.07
2018-04-27T03:36:25.274Z,1014.08
2018-04-27T03:37:25.307Z,1014.12
2018-04-27T03:38:25.327Z,1014.07
2018-04-27T03:39:25.774Z,1014.08
2018-04-27T03:40:25.809Z,1014.07
2018-04-27T03:41:25.838Z,1014.05
2018-04-27T03:42:25.865Z,1014.1
2018-04-27T03:43:25.890Z,1014.13
2018-04-27T03:44:26.346Z,1014.11
2018-04-27T03:45:26.406Z,1014.12
2018-04-27T03:46:26.623Z,1014.12
2018-04-27T03:47:26.816Z,1014.11
2018-04-27T03:48:27.016Z,1014.1
2018-04-27T03:49:27.506Z,1014.12
2018-04-27T03:50:27.508Z,1014.15
2018-04-27T03:51:27.536Z,1014.1
2018-04-27T03:52:27.558Z,1014.11
2018-04-27T03:53:27.590Z,1014.13
2018-04-27T03:54:27.618Z,1014.13
2018-04-27T03:55:27.645Z,1014.12
2018-04-27T03:56:27.663Z,1014.14
2018-04-27T03:57:27.878Z,1014.13
2018-04-27T03:58:27.988Z,1014.17
2018-04-27T03:59:28.282Z,1014.21
2018-04-27T04:00:28.300Z,1014.26
2018-04-27T04:01:28.595Z,1014.25
2018-04-27T04:02:29.028Z,1014.24
2018-04-27T04:03:29.361Z,1014.24
2018-04-27T04:04:29.410Z,1014.28
2018-04-27T04:05:29.448Z,1014.26
2018-04-27T04:06:29.633Z,1014.26
2018-04-27T04:07:29.637Z,1014.25
2018-04-27T04:08:29.518Z,1014.24
2018-04-27T04:09:29.588Z,1014.29
2018-04-27T04:10:29.562Z,1014.28
2018-04-27T04:11:29.593Z,1014.3
2018-04-27T04:12:29.615Z,1014.27
2018-04-27T04:13:29.675Z,1014.32
2018-04-27T04:14:29.700Z,1014.27
2018-04-27T04:15:30.101Z,1014.38
2018-04-27T04:16:30.144Z,1014.44
2018-04-27T04:17:30.172Z,1014.34
2018-04-27T04:18:30.195Z,1014.37
2018-04-27T04:19:30.335Z,1014.38
2018-04-27T04:20:30.491Z,1014.42
2018-04-27T04:21:30.527Z,1014.39
2018-04-27T04:22:30.934Z,1014.42
2018-04-27T04:23:30.973Z,1014.45
2018-04-27T04:24:31.105Z,1014.38
2018-04-27T04:25:31.129Z,1014.34
2018-04-27T04:26:31.161Z,1014.39
2018-04-27T04:27:31.175Z,1014.41
2018-04-27T04:28:31.591Z,1014.38
2018-04-27T04:29:31.707Z,1014.39
2018-04-27T04:30:32.111Z,1014.49
2018-04-27T04:31:32.114Z,1014.48
2018-04-27T04:32:32.514Z,1014.46
2018-04-27T04:33:32.660Z,1014.47
2018-04-27T04:34:32.704Z,1014.41
2018-04-27T04:35:33.002Z,1014.45
2018-04-27T04:36:33.031Z,1014.46
2018-04-27T04:37:33.426Z,1014.46
2018-04-27T04:38:33.531Z,1014.56
2018-04-27T04:39:33.641Z,1014.47
2018-04-27T04:40:33.654Z,1014.49
2018-04-27T04:41:33.685Z,1014.54
2018-04-27T04:42:33.952Z,1014.55
2018-04-27T04:43:33.917Z,1014.54
2018-04-27T04:44:33.976Z,1014.52
2018-04-27T04:45:34.117Z,1014.55
2018-04-27T04:46:34.411Z,1014.52
2018-04-27T04:47:34.807Z,1014.54
2018-04-27T04:48:34.830Z,1014.47
2018-04-27T04:49:35.053Z,1014.49
2018-04-27T04:50:35.409Z,1014.5
2018-04-27T04:51:35.309Z,1014.51
2018-04-27T04:52:35.741Z,1014.5
2018-04-27T04:53:35.757Z,1014.56
2018-04-27T04:54:35.786Z,1014.58
2018-04-27T04:55:35.838Z,1014.52
2018-04-27T04:56:35.746Z,1014.55
2018-04-27T04:57:35.770Z,1014.54
2018-04-27T04:58:36.389Z,1014.57
2018-04-27T04:59:36.362Z,1014.57
2018-04-27T05:00:36.642Z,1014.62
2018-04-27T05:01:36.826Z,1014.63
2018-04-27T05:02:36.404Z,1014.62
2018-04-27T05:03:36.643Z,1014.65
2018-04-27T05:04:37.053Z,1014.65
2018-04-27T05:05:37.827Z,1014.65
2018-04-27T05:06:37.859Z,1014.64
2018-04-27T05:07:37.967Z,1014.64
2018-04-27T05:08:37.745Z,1014.65
2018-04-27T05:09:38.488Z,1014.66
2018-04-27T05:10:38.514Z,1014.68
2018-04-27T05:11:38.538Z,1014.7
2018-04-27T05:12:38.663Z,1014.67
2018-04-27T05:13:38.728Z,1014.66
2018-04-27T05:14:38.713Z,1014.69
2018-04-27T05:15:38.964Z,1014.71
2018-04-27T05:16:38.990Z,1014.75
2018-04-27T05:17:39.362Z,1014.67
2018-04-27T05:18:39.330Z,1014.69
2018-04-27T05:19:39.911Z,1014.75
2018-04-27T05:20:40.252Z,1014.72
2018-04-27T05:21:40.282Z,1014.68
2018-04-27T05:22:40.332Z,1014.76
2018-04-27T05:23:40.298Z,1014.75
2018-04-27T05:24:40.330Z,1014.75
2018-04-27T05:25:40.757Z,1014.76
2018-04-27T05:26:41.652Z,1014.78
2018-04-27T05:27:41.819Z,1014.78
2018-04-27T05:28:41.563Z,1014.8
2018-04-27T05:29:41.645Z,1014.81
2018-04-27T05:30:42.008Z,1014.78
2018-04-27T05:31:42.002Z,1014.76
2018-04-27T05:32:42.969Z,1014.77
2018-04-27T05:33:42.713Z,1014.8
2018-04-27T05:34:42.762Z,1014.8
2018-04-27T05:35:42.784Z,1014.77
2018-04-27T05:36:42.863Z,1014.77
2018-04-27T05:37:43.308Z,1014.78
2018-04-27T05:38:43.328Z,1014.78
2018-04-27T05:39:43.364Z,1014.78
2018-04-27T05:40:43.404Z,1014.77
2018-04-27T05:41:43.417Z,1014.74
2018-04-27T05:42:43.884Z,1014.71
2018-04-27T05:43:44.029Z,1014.69
2018-04-27T05:44:44.055Z,1014.73
2018-04-27T05:45:44.455Z,1014.72
2018-04-27T05:46:44.572Z,1014.72
2018-04-27T05:47:44.633Z,1014.76
2018-04-27T05:48:44.652Z,1014.72
2018-04-27T05:49:44.841Z,1014.81
2018-04-27T05:50:44.873Z,1014.8
2018-04-27T05:51:44.904Z,1014.76
2018-04-27T05:52:45.048Z,1014.78
2018-04-27T05:53:45.093Z,1014.85
2018-04-27T05:54:45.373Z,1014.88
2018-04-27T05:55:45.480Z,1014.82
2018-04-27T05:56:45.658Z,1014.75
2018-04-27T05:57:45.939Z,1014.71
2018-04-27T05:58:46.153Z,1014.77
2018-04-27T05:59:46.323Z,1014.72
2018-04-27T06:00:46.373Z,1014.71
2018-04-27T06:01:46.681Z,1014.69
2018-04-27T06:02:46.903Z,1014.69
2018-04-27T06:03:46.934Z,1014.75
2018-04-27T06:04:46.967Z,1014.81
2018-04-27T06:05:46.993Z,1014.78
2018-04-27T06:06:47.461Z,1014.76
2018-04-27T06:07:47.482Z,1014.69
2018-04-27T06:08:47.517Z,1014.73
2018-04-27T06:09:47.556Z,1014.7
2018-04-27T06:10:47.583Z,1014.67
2018-04-27T06:11:47.806Z,1014.68
2018-04-27T06:12:47.839Z,1014.77
2018-04-27T06:13:47.873Z,1014.75
2018-04-27T06:14:47.907Z,1014.71
2018-04-27T06:15:47.925Z,1014.82
2018-04-27T06:16:48.475Z,1014.87
2018-04-27T06:17:48.493Z,1014.89
2018-04-27T06:18:48.533Z,1014.88
2018-04-27T06:19:48.568Z,1014.86
2018-04-27T06:20:48.956Z,1014.84
2018-04-27T06:21:48.936Z,1014.74
2018-04-27T06:22:49.265Z,1014.71
2018-04-27T06:23:49.333Z,1014.74
2018-04-27T06:24:49.327Z,1014.71
2018-04-27T06:25:49.374Z,1014.83
2018-04-27T06:26:49.392Z,1014.74
2018-04-27T06:27:49.416Z,1014.73
2018-04-27T06:28:49.466Z,1014.82
2018-04-27T06:29:49.488Z,1014.97
2018-04-27T06:30:49.761Z,1014.93
2018-04-27T06:31:50.416Z,1015.14
2018-04-27T06:32:50.379Z,1015.39
2018-04-27T06:33:50.413Z,1015.37
2018-04-27T06:34:50.446Z,1015.37
2018-04-27T06:35:50.690Z,1015.38
2018-04-27T06:36:51.162Z,1015.28
2018-04-27T06:37:51.232Z,1015.16
2018-04-27T06:38:51.238Z,1015.2
2018-04-27T06:39:51.320Z,1015.17
2018-04-27T06:40:51.647Z,1015.16
2018-04-27T06:41:51.582Z,1015.08
2018-04-27T06:42:51.622Z,1015.01
2018-04-27T06:43:52.009Z,1014.92
2018-04-27T06:44:52.020Z,1014.96
2018-04-27T06:45:52.053Z,1014.94
2018-04-27T06:46:52.527Z,1014.95
2018-04-27T06:47:52.772Z,1014.97
2018-04-27T06:48:53.144Z,1014.87
2018-04-27T06:49:53.159Z,1014.89
2018-04-27T06:50:53.558Z,1014.86
2018-04-27T06:51:53.986Z,1014.87
2018-04-27T06:52:54.953Z,1014.76
2018-04-27T06:53:54.531Z,1014.66
2018-04-27T06:54:54.761Z,1014.66
2018-04-27T06:55:54.772Z,1014.62
2018-04-27T06:56:54.805Z,1014.64
2018-04-27T06:57:55.023Z,1014.64
2018-04-27T06:58:55.272Z,1014.63
2018-04-27T06:59:55.309Z,1014.69
2018-04-27T07:00:55.345Z,1014.67
2018-04-27T07:01:55.375Z,1014.6
2018-04-27T07:02:55.409Z,1014.63
2018-04-27T07:03:55.443Z,1014.59
2018-04-27T07:04:55.483Z,1014.65
2018-04-27T07:05:55.513Z,1014.59
2018-04-27T07:06:55.629Z,1014.71
2018-04-27T07:07:55.919Z,1014.68
2018-04-27T07:08:56.387Z,1014.67
2018-04-27T07:09:56.424Z,1014.64
2018-04-27T07:10:56.871Z,1014.55
2018-04-27T07:11:57.077Z,1014.63
2018-04-27T07:12:57.123Z,1014.65
2018-04-27T07:13:57.146Z,1014.68
2018-04-27T07:14:57.191Z,1014.61
2018-04-27T07:15:57.443Z,1014.64
2018-04-27T07:16:57.584Z,1014.58
2018-04-27T07:17:57.519Z,1014.64
2018-04-27T07:18:57.733Z,1014.65
2018-04-27T07:19:57.774Z,1014.57
2018-04-27T07:20:57.801Z,1014.56
2018-04-27T07:21:57.991Z,1014.49
2018-04-27T07:22:57.876Z,1014.49
2018-04-27T07:23:57.915Z,1014.48
2018-04-27T07:24:58.078Z,1014.46
2018-04-27T07:25:58.160Z,1014.45
2018-04-27T07:26:58.027Z,1014.43
2018-04-27T07:27:58.053Z,1014.48
2018-04-27T07:28:58.094Z,1014.45
2018-04-27T07:29:58.129Z,1014.51
2018-04-27T07:30:58.324Z,1014.51
2018-04-27T07:31:58.341Z,1014.45
2018-04-27T07:32:58.293Z,1014.49
2018-04-27T07:33:58.277Z,1014.48
2018-04-27T07:34:58.396Z,1014.44
2018-04-27T07:35:58.384Z,1014.42
2018-04-27T07:36:58.427Z,1014.45
2018-04-27T07:37:58.825Z,1014.46
2018-04-27T07:38:59.066Z,1014.45
2018-04-27T07:39:59.030Z,1014.42
2018-04-27T07:40:59.065Z,1014.42
2018-04-27T07:41:59.268Z,1014.38
2018-04-27T07:42:59.365Z,1014.37
2018-04-27T07:43:59.354Z,1014.4
2018-04-27T07:44:59.603Z,1014.51
2018-04-27T07:45:59.642Z,1014.52
2018-04-27T07:46:59.911Z,1014.5
2018-04-27T07:47:59.888Z,1014.51
2018-04-27T07:48:59.925Z,1014.49
2018-04-27T07:49:59.966Z,1014.48
2018-04-27T07:50:59.997Z,1014.51
2018-04-27T07:52:00.033Z,1014.55
2018-04-27T07:53:00.070Z,1014.51
2018-04-27T07:54:00.113Z,1014.44
2018-04-27T07:55:00.148Z,1014.58
2018-04-27T07:56:00.200Z,1014.53
2018-04-27T07:57:00.449Z,1014.39
2018-04-27T07:58:00.773Z,1014.25
2018-04-27T07:59:00.812Z,1014.36
2018-04-27T08:00:04.293Z,1014.29
2018-04-27T08:01:02.504Z,1014.35
2018-04-27T08:02:02.693Z,1014.36
2018-04-27T08:03:02.677Z,1014.4
2018-04-27T08:04:02.735Z,1014.41
2018-04-27T08:05:02.879Z,1014.46
2018-04-27T08:06:02.909Z,1014.45
2018-04-27T08:07:03.301Z,1014.53
2018-04-27T08:08:03.323Z,1014.54
2018-04-27T08:09:03.420Z,1014.55
2018-04-27T08:10:03.449Z,1014.65
2018-04-27T08:11:03.489Z,1014.66
2018-04-27T08:12:03.616Z,1014.65
2018-04-27T08:13:04.008Z,1014.63
2018-04-27T08:14:04.292Z,1014.62
2018-04-27T08:15:04.557Z,1014.5
2018-04-27T08:16:04.288Z,1014.65
2018-04-27T08:17:04.704Z,1014.73
2018-04-27T08:18:05.100Z,1014.89
2018-04-27T08:19:05.138Z,1014.84
2018-04-27T08:20:05.447Z,1014.79
2018-04-27T08:21:05.533Z,1014.84
2018-04-27T08:22:05.825Z,1014.87
2018-04-27T08:23:05.955Z,1014.86
2018-04-27T08:24:06.352Z,1014.92
2018-04-27T08:25:06.060Z,1014.83
2018-04-27T08:26:06.074Z,1014.83
2018-04-27T08:27:06.167Z,1014.72
2018-04-27T08:28:06.289Z,1014.74
2018-04-27T08:29:06.337Z,1014.79
2018-04-27T08:30:06.392Z,1014.73
2018-04-27T08:31:06.519Z,1014.84
2018-04-27T08:32:07.715Z,1014.83
2018-04-27T08:33:07.285Z,1014.89
2018-04-27T08:34:07.620Z,1014.83
2018-04-27T08:35:07.640Z,1014.84
2018-04-27T08:36:07.681Z,1014.9
2018-04-27T08:37:07.749Z,1014.83
2018-04-27T08:38:08.058Z,1014.83
2018-04-27T08:39:08.112Z,1014.82
2018-04-27T08:40:08.146Z,1014.81
2018-04-27T08:41:08.294Z,1014.79
2018-04-27T08:42:08.575Z,1014.78
2018-04-27T08:43:09.035Z,1014.74
2018-04-27T08:44:09.213Z,1014.73
2018-04-27T08:45:09.457Z,1014.75
2018-04-27T08:46:09.598Z,1014.72
2018-04-27T08:47:09.343Z,1014.7
2018-04-27T08:48:09.454Z,1014.68
2018-04-27T08:49:09.786Z,1014.65
2018-04-27T08:50:09.949Z,1014.63
2018-04-27T08:51:09.482Z,1014.67
2018-04-27T08:52:09.671Z,1014.63
2018-04-27T08:53:09.836Z,1014.63
2018-04-27T08:54:09.919Z,1014.49
2018-04-27T08:55:09.800Z,1014.6
2018-04-27T08:56:09.964Z,1014.6
2018-04-27T08:57:09.815Z,1014.67
2018-04-27T08:58:09.768Z,1014.69
2018-04-27T08:59:09.852Z,1014.62
2018-04-27T09:00:22.901Z,1014.57
2018-04-27T09:01:22.838Z,1014.56
2018-04-27T09:02:23.171Z,1014.61
2018-04-27T09:03:23.138Z,1014.57
2018-04-27T09:04:23.218Z,1014.59
2018-04-27T09:05:23.239Z,1014.66
2018-04-27T09:06:23.332Z,1014.69
2018-04-27T09:07:23.272Z,1014.67
2018-04-27T09:08:23.313Z,1014.45
2018-04-27T09:09:23.668Z,1014.66
2018-04-27T09:10:23.645Z,1014.63
2018-04-27T09:11:23.954Z,1014.54
2018-04-27T09:12:23.919Z,1014.71
2018-04-27T09:13:24.187Z,1014.75
2018-04-27T09:14:24.038Z,1014.66
2018-04-27T09:15:24.576Z,1014.67
2018-04-27T09:16:24.475Z,1014.67
2018-04-27T09:17:24.602Z,1014.62
2018-04-27T09:18:24.671Z,1014.64
2018-04-27T09:19:24.735Z,1014.59
2018-04-27T09:20:24.845Z,1014.58
2018-04-27T09:21:24.871Z,1014.5
2018-04-27T09:22:24.922Z,1014.43
2018-04-27T09:23:24.944Z,1014.48
2018-04-27T09:24:25.105Z,1014.44
2018-04-27T09:25:25.161Z,1014.42
2018-04-27T09:26:25.653Z,1014.51
2018-04-27T09:27:26.099Z,1014.47
2018-04-27T09:28:26.250Z,1014.39
2018-04-27T09:29:26.707Z,1014.5
2018-04-27T09:30:26.872Z,1014.47
2018-04-27T09:31:27.294Z,1014.62
2018-04-27T09:32:27.756Z,1014.65
2018-04-27T09:33:27.792Z,1014.59
2018-04-27T09:34:28.212Z,1014.66
2018-04-27T09:35:28.596Z,1014.6
2018-04-27T09:36:28.627Z,1014.47
2018-04-27T09:37:29.064Z,1014.61
2018-04-27T09:38:29.368Z,1014.53
2018-04-27T09:39:29.600Z,1014.14
2018-04-27T09:40:29.572Z,1013.97
2018-04-27T09:41:29.596Z,1013.91
2018-04-27T09:42:30.063Z,1013.85
2018-04-27T09:43:30.092Z,1013.82
2018-04-27T09:44:30.170Z,1013.82
2018-04-27T09:45:30.175Z,1013.86
2018-04-27T09:46:30.329Z,1013.81
2018-04-27T09:47:30.354Z,1013.86
2018-04-27T09:48:30.398Z,1013.86
2018-04-27T09:49:30.495Z,1013.55
2018-04-27T09:50:30.535Z,1013.63
2018-04-27T09:51:30.917Z,1013.79
2018-04-27T09:52:31.329Z,1013.77
2018-04-27T09:53:31.588Z,1013.7
2018-04-27T09:54:31.773Z,1013.69
2018-04-27T09:55:31.790Z,1013.64
2018-04-27T09:56:31.838Z,1013.63
2018-04-27T09:57:32.317Z,1013.69
2018-04-27T09:58:32.384Z,1013.7
2018-04-27T09:59:32.420Z,1013.58
2018-04-27T10:00:32.477Z,1013.63
2018-04-27T10:01:32.508Z,1013.64
2018-04-27T10:02:32.556Z,1013.68
2018-04-27T10:03:32.597Z,1013.64
2018-04-27T10:04:33.049Z,1013.63
2018-04-27T10:05:33.467Z,1013.44
2018-04-27T10:06:33.500Z,1013.55
2018-04-27T10:07:33.744Z,1013.61
2018-04-27T10:08:33.843Z,1013.41
2018-04-27T10:09:33.805Z,1013.47
2018-04-27T10:10:34.103Z,1013.38
2018-04-27T10:11:34.599Z,1013.48
2018-04-27T10:12:34.627Z,1013.4
2018-04-27T10:13:34.666Z,1013.36
2018-04-27T10:14:34.699Z,1013.32
2018-04-27T10:15:34.745Z,1013.4
2018-04-27T10:16:34.944Z,1013.41
2018-04-27T10:17:35.173Z,1013.43
2018-04-27T10:18:35.213Z,1013.43
2018-04-27T10:19:35.436Z,1013.31
2018-04-27T10:20:35.502Z,1013.26
2018-04-27T10:21:35.502Z,1013.22
2018-04-27T10:22:35.560Z,1013.25
2018-04-27T10:23:35.932Z,1013.21
2018-04-27T10:24:36.256Z,1013.23
2018-04-27T10:25:36.002Z,1013.23
2018-04-27T10:26:36.037Z,1013.16
2018-04-27T10:27:36.072Z,1013.13
2018-04-27T10:28:36.321Z,1013.1
2018-04-27T10:29:36.367Z,1013.18
2018-04-27T10:30:36.391Z,1013.26
2018-04-27T10:31:36.616Z,1013.11
2018-04-27T10:32:36.652Z,1013.12
2018-04-27T10:33:36.876Z,1013.16
2018-04-27T10:34:36.876Z,1013.15
2018-04-27T10:35:37.121Z,1013.06
2018-04-27T10:36:37.200Z,1013.04
2018-04-27T10:37:37.268Z,1012.98
2018-04-27T10:38:37.547Z,1012.98
2018-04-27T10:39:37.604Z,1013.09
2018-04-27T10:40:37.643Z,1013.07
2018-04-27T10:41:37.677Z,1012.97
2018-04-27T10:42:37.706Z,1013
2018-04-27T10:43:38.183Z,1013.01
2018-04-27T10:44:38.215Z,1012.97
2018-04-27T10:45:38.254Z,1012.98
2018-04-27T10:46:38.294Z,1012.91
2018-04-27T10:47:38.329Z,1012.93
2018-04-27T10:48:38.531Z,1012.95
2018-04-27T10:49:38.562Z,1012.94
2018-04-27T10:50:38.600Z,1012.91
2018-04-27T10:51:38.735Z,1012.95
2018-04-27T10:52:38.755Z,1013
2018-04-27T10:53:38.780Z,1012.86
2018-04-27T10:54:38.835Z,1012.86
2018-04-27T10:55:38.853Z,1012.78
2018-04-27T10:56:38.899Z,1012.82
2018-04-27T10:57:38.999Z,1012.83
2018-04-27T10:58:39.139Z,1012.84
2018-04-27T10:59:39.004Z,1012.75
2018-04-27T11:00:39.025Z,1012.79
2018-04-27T11:01:39.087Z,1012.73
2018-04-27T11:02:39.163Z,1012.83
2018-04-27T11:03:39.319Z,1012.77
2018-04-27T11:04:39.400Z,1012.74
2018-04-27T11:05:39.375Z,1012.73
2018-04-27T11:06:39.533Z,1012.74
2018-04-27T11:07:39.390Z,1012.7
2018-04-27T11:08:39.479Z,1012.65
2018-04-27T11:09:39.411Z,1012.61
2018-04-27T11:10:39.560Z,1012.58
2018-04-27T11:11:39.490Z,1012.58
2018-04-27T11:12:39.773Z,1012.53
2018-04-27T11:13:39.917Z,1012.49
2018-04-27T11:14:40.038Z,1012.51
2018-04-27T11:15:40.049Z,1012.52
2018-04-27T11:16:40.006Z,1012.48
2018-04-27T11:17:40.523Z,1012.48
2018-04-27T11:18:40.138Z,1012.38
2018-04-27T11:19:40.171Z,1012.38
2018-04-27T11:20:40.207Z,1012.36
2018-04-27T11:21:40.238Z,1012.39
2018-04-27T11:22:40.283Z,1012.35
2018-04-27T11:23:40.322Z,1012.27
2018-04-27T11:24:40.630Z,1012.39
2018-04-27T11:25:40.683Z,1012.33
2018-04-27T11:26:40.912Z,1012.37
2018-04-27T11:27:40.944Z,1012.38
2018-04-27T11:28:41.031Z,1012.35
2018-04-27T11:29:41.013Z,1012.28
2018-04-27T11:30:41.055Z,1012.3
2018-04-27T11:31:41.077Z,1012.26
2018-04-27T11:32:41.110Z,1012.35
2018-04-27T11:33:41.443Z,1012.28
2018-04-27T11:34:41.769Z,1012.24
2018-04-27T11:35:41.569Z,1012.22
2018-04-27T11:36:42.159Z,1012.2
2018-04-27T11:37:42.377Z,1012.15
2018-04-27T11:38:42.412Z,1012.18
2018-04-27T11:39:42.115Z,1012.18
2018-04-27T11:40:42.189Z,1012.19
2018-04-27T11:41:42.598Z,1012.13
2018-04-27T11:42:42.948Z,1012.12
2018-04-27T11:43:43.114Z,1012.15
2018-04-27T11:44:42.754Z,1012.21
2018-04-27T11:45:42.741Z,1012.2
2018-04-27T11:46:42.786Z,1012.1
2018-04-27T11:47:42.842Z,1012.12
2018-04-27T11:48:43.206Z,1012.09
2018-04-27T11:49:43.285Z,1012.14
2018-04-27T11:50:43.660Z,1012.1
2018-04-27T11:51:43.765Z,1012.05
2018-04-27T11:52:43.824Z,1012.13
2018-04-27T11:53:43.894Z,1012.07
2018-04-27T11:54:43.880Z,1012.1
2018-04-27T11:55:43.924Z,1012.12
2018-04-27T11:56:43.948Z,1012
2018-04-27T11:57:44.168Z,1011.99
2018-04-27T11:58:44.195Z,1012.04
2018-04-27T11:59:44.668Z,1012.04
2018-04-27T12:00:44.832Z,1012.09
2018-04-27T12:01:45.070Z,1012.12
2018-04-27T12:02:45.366Z,1012.11
2018-04-27T12:03:45.740Z,1012.08
2018-04-27T12:04:45.759Z,1012.15
2018-04-27T12:05:45.805Z,1012.16
2018-04-27T12:06:45.829Z,1012.09
2018-04-27T12:07:45.867Z,1012.05
2018-04-27T12:08:45.920Z,1012.08
2018-04-27T12:09:45.949Z,1012.05